Port Stanley, Canada
Current Conditions -  °F | °C
As of 9:00 AM on Thursday 23 Oct 2014 (Local Time) from CYXU Reporting Station
Clear Clear  
Wind Chill: 36°   Ceiling: Unl
Heat Index: 41°   Visibility: 15mi
Dew Point: 39°   Wind: 7mph
Humidity: 93%   Direction: 360°N
Pressure: 30.2"   Gusts: NA
Location:  42.67°N, 81.22°W
Report Text: CYXU 231300Z 36006KT 15SM SKC 05/04 A3020 RMK SLP234
Loading
Personal Weather Stations






























Interactive Weather Map
Tropical Storm Tracking
New forecast layout! Learn more

10-Day Weather Forecast

Advertisements
Track Severe Weather on mobile